Time;durP1;ratioP1;P1;durP2;ratioP2;P2;SDS_P1;SDS_P2;PMS_P1;PMS_P2;Temp;Humidity;BMP_temperature;BMP_pressure;BME280_temperature;BME280_humidity;BME280_pressure;Samples;Min_cycle;Max_cycle;Signal;HPM_P1;HPM_P2
2024/03/21 00:01:20;;;;;;;32.37;24.73;;;;;;;;;;4992765;28;20434;-77
2024/03/21 00:03:46;;;;;;;40.20;27.53;;;;;;;;;;4993227;28;20744;-83
2024/03/21 00:06:12;;;;;;;35.60;23.97;;;;;;;;;;4993402;28;20176;-83
2024/03/21 00:08:38;;;;;;;34.37;25.70;;;;;;;;;;4993333;28;20264;-86
2024/03/21 00:11:04;;;;;;;31.50;24.53;;;;;;;;;;4993256;28;20458;-80
2024/03/21 00:13:30;;;;;;;28.90;23.20;;;;;;;;;;4993186;28;20883;-86
2024/03/21 00:15:56;;;;;;;32.30;24.93;;;;;;;;;;4993291;28;20180;-82
2024/03/21 00:18:23;;;;;;;29.67;23.73;;;;;;;;;;4992750;28;20201;-79
2024/03/21 00:20:49;;;;;;;31.63;25.90;;;;;;;;;;4994128;28;20172;-81
2024/03/21 00:23:15;;;;;;;35.63;26.13;;;;;;;;;;4996714;28;20405;-81
2024/03/21 00:25:41;;;;;;;30.93;26.13;;;;;;;;;;4996576;28;20761;-76
2024/03/21 00:28:07;;;;;;;30.50;25.17;;;;;;;;;;4995918;28;20176;-77
2024/03/21 00:30:33;;;;;;;32.87;25.70;;;;;;;;;;4996970;28;20419;-77
2024/03/21 00:33:00;;;;;;;28.90;25.80;;;;;;;;;;4994398;28;20433;-81
2024/03/21 00:35:26;;;;;;;27.40;24.43;;;;;;;;;;4996279;28;20526;-87
2024/03/21 00:37:52;;;;;;;28.50;24.43;;;;;;;;;;4994248;28;20834;-82
2024/03/21 00:40:18;;;;;;;32.73;27.13;;;;;;;;;;4996477;28;20422;-80
2024/03/21 00:42:44;;;;;;;33.13;25.93;;;;;;;;;;4995692;28;20702;-78
2024/03/21 00:45:11;;;;;;;31.00;24.30;;;;;;;;;;4996408;28;20524;-78
2024/03/21 00:47:36;;;;;;;28.73;24.57;;;;;;;;;;4996379;28;20418;-80
2024/03/21 00:50:03;;;;;;;30.60;24.67;;;;;;;;;;4996674;28;20422;-79
2024/03/21 00:52:29;;;;;;;34.27;25.03;;;;;;;;;;4996560;28;20510;-78
2024/03/21 00:54:55;;;;;;;30.80;23.90;;;;;;;;;;4995256;28;21074;-79
2024/03/21 00:57:21;;;;;;;31.40;25.97;;;;;;;;;;4996438;28;20457;-79
2024/03/21 00:59:47;;;;;;;32.00;23.90;;;;;;;;;;4996515;28;20900;-87
2024/03/21 01:02:14;;;;;;;30.20;25.40;;;;;;;;;;4996007;28;20410;-77
2024/03/21 01:04:43;;;;;;;31.97;23.47;;;;;;;;;;4996074;28;20564;-77
2024/03/21 01:07:09;;;;;;;30.10;23.93;;;;;;;;;;4996271;28;20407;-77
2024/03/21 01:09:36;;;;;;;31.40;24.60;;;;;;;;;;4996216;28;20452;-76
2024/03/21 01:12:02;;;;;;;30.47;24.60;;;;;;;;;;4996155;28;20783;-76
2024/03/21 01:14:28;;;;;;;28.13;23.80;;;;;;;;;;4994782;28;20470;-78
2024/03/21 01:16:54;;;;;;;30.33;24.73;;;;;;;;;;4994462;28;20773;-78
2024/03/21 01:19:20;;;;;;;30.73;26.03;;;;;;;;;;4996052;28;20463;-77
2024/03/21 01:21:46;;;;;;;33.93;26.77;;;;;;;;;;4995971;28;20473;-84
2024/03/21 01:24:12;;;;;;;36.00;26.20;;;;;;;;;;4995981;28;20621;-78
2024/03/21 01:26:38;;;;;;;29.63;24.60;;;;;;;;;;4995926;28;20415;-83
2024/03/21 01:29:05;;;;;;;31.27;24.93;;;;;;;;;;4995882;28;20179;-77
2024/03/21 01:31:31;;;;;;;30.53;25.00;;;;;;;;;;4994655;28;20411;-77
2024/03/21 01:33:57;;;;;;;38.37;27.57;;;;;;;;;;4995314;28;20469;-82
2024/03/21 01:36:22;;;;;;;30.07;26.90;;;;;;;;;;4995754;28;20561;-77
2024/03/21 01:38:49;;;;;;;32.70;26.37;;;;;;;;;;4995763;28;20439;-84
2024/03/21 01:41:15;;;;;;;37.63;27.80;;;;;;;;;;4994320;28;20418;-85
2024/03/21 01:43:40;;;;;;;31.97;26.40;;;;;;;;;;4995585;28;20422;-81
2024/03/21 01:46:09;;;;;;;30.57;27.10;;;;;;;;;;4995254;28;20526;-84
2024/03/21 01:48:39;;;;;;;30.70;27.00;;;;;;;;;;4995419;28;20772;-85
2024/03/21 01:51:06;;;;;;;35.53;26.67;;;;;;;;;;4994263;28;20912;-85
2024/03/21 01:53:32;;;;;;;32.33;27.23;;;;;;;;;;4994089;28;20435;-85
2024/03/21 01:55:59;;;;;;;31.07;27.70;;;;;;;;;;4995390;28;20506;-85
2024/03/21 01:58:25;;;;;;;38.03;29.77;;;;;;;;;;4995253;28;20413;-83
2024/03/21 02:00:51;;;;;;;33.77;28.70;;;;;;;;;;4994858;28;20449;-79
2024/03/21 02:03:17;;;;;;;32.27;28.77;;;;;;;;;;4995197;28;20419;-75
2024/03/21 02:05:43;;;;;;;36.73;28.33;;;;;;;;;;4995215;28;20441;-82
2024/03/21 02:08:09;;;;;;;36.50;29.67;;;;;;;;;;4995057;28;20430;-76
2024/03/21 02:10:36;;;;;;;36.60;30.93;;;;;;;;;;4995070;28;20185;-76
2024/03/21 02:13:02;;;;;;;34.13;27.30;;;;;;;;;;4995006;28;20411;-76
2024/03/21 02:15:28;;;;;;;40.03;30.17;;;;;;;;;;4994928;28;20474;-77
2024/03/21 02:17:54;;;;;;;37.73;29.33;;;;;;;;;;4994554;28;20407;-76
2024/03/21 02:20:20;;;;;;;35.00;29.00;;;;;;;;;;4993481;28;20437;-85
2024/03/21 02:22:46;;;;;;;37.50;30.30;;;;;;;;;;4994815;28;20466;-78
2024/03/21 02:25:12;;;;;;;42.03;31.10;;;;;;;;;;4994800;28;20806;-82
2024/03/21 02:27:39;;;;;;;35.00;30.43;;;;;;;;;;4994757;28;20225;-78
2024/03/21 02:30:09;;;;;;;37.37;31.67;;;;;;;;;;4994723;28;20477;-77
2024/03/21 02:32:36;;;;;;;37.03;30.83;;;;;;;;;;4994360;28;20473;-86
2024/03/21 02:35:03;;;;;;;41.50;31.63;;;;;;;;;;4994429;28;20892;-77
2024/03/21 02:37:29;;;;;;;35.07;29.33;;;;;;;;;;4994510;28;20413;-85
2024/03/21 02:39:55;;;;;;;42.60;32.80;;;;;;;;;;4994579;28;20990;-76
2024/03/21 02:42:22;;;;;;;37.37;30.87;;;;;;;;;;4993170;28;20273;-77
2024/03/21 02:44:48;;;;;;;41.30;32.83;;;;;;;;;;4994174;28;20771;-78
2024/03/21 02:47:14;;;;;;;40.20;30.77;;;;;;;;;;4994149;28;20461;-77
2024/03/21 02:49:40;;;;;;;39.13;30.77;;;;;;;;;;4994520;28;20999;-77
2024/03/21 02:52:06;;;;;;;36.00;28.13;;;;;;;;;;4994342;28;20406;-77
2024/03/21 02:54:32;;;;;;;36.40;30.23;;;;;;;;;;4994413;28;20842;-81
2024/03/21 02:56:59;;;;;;;38.73;29.10;;;;;;;;;;4994190;28;20917;-86
2024/03/21 02:59:25;;;;;;;40.20;30.40;;;;;;;;;;4994242;28;20401;-83
2024/03/21 03:01:51;;;;;;;39.10;30.50;;;;;;;;;;4993868;28;20417;-77
2024/03/21 03:04:16;;;;;;;36.27;29.03;;;;;;;;;;4993916;28;20505;-84
2024/03/21 03:06:42;;;;;;;35.20;27.80;;;;;;;;;;4994194;28;20652;-77
2024/03/21 03:09:08;;;;;;;39.30;26.13;;;;;;;;;;4993604;28;20473;-80
2024/03/21 03:11:37;;;;;;;30.40;25.10;;;;;;;;;;4993923;28;20542;-77
2024/03/21 03:14:03;;;;;;;37.47;27.20;;;;;;;;;;4993915;28;20529;-77
2024/03/21 03:16:34;;;;;;;33.67;25.80;;;;;;;;;;4993712;28;20435;-80
2024/03/21 03:19:03;;;;;;;29.93;25.03;;;;;;;;;;4993801;28;20418;-79
2024/03/21 03:21:29;;;;;;;34.40;26.40;;;;;;;;;;4993882;28;20915;-82
2024/03/21 03:23:55;;;;;;;28.40;23.23;;;;;;;;;;4993938;28;20460;-76
2024/03/21 03:26:21;;;;;;;33.23;22.63;;;;;;;;;;4994144;28;20958;-77
2024/03/21 03:28:47;;;;;;;31.13;21.73;;;;;;;;;;4993818;28;20429;-78
2024/03/21 03:31:13;;;;;;;30.83;21.20;;;;;;;;;;4993439;28;20420;-77
2024/03/21 03:36:24;;;;;;;28.30;21.37;;;;;;;;;;4993976;28;20506;-82
2024/03/21 03:38:50;;;;;;;29.70;20.33;;;;;;;;;;4987743;28;20414;-76
2024/03/21 03:41:16;;;;;;;31.43;23.07;;;;;;;;;;4981105;28;20439;-77
2024/03/21 03:43:42;;;;;;;27.13;20.30;;;;;;;;;;4983958;28;20442;-76
2024/03/21 03:46:08;;;;;;;30.63;21.77;;;;;;;;;;4986319;28;20437;-76
2024/03/21 03:48:34;;;;;;;31.57;22.43;;;;;;;;;;4991262;28;20933;-76
2024/03/21 03:51:00;;;;;;;28.00;19.93;;;;;;;;;;4990378;28;20453;-77
2024/03/21 03:53:26;;;;;;;33.13;19.63;;;;;;;;;;4991819;28;20708;-77
2024/03/21 03:55:52;;;;;;;28.00;20.40;;;;;;;;;;4995186;28;20470;-77
2024/03/21 03:58:19;;;;;;;26.77;19.13;;;;;;;;;;4995972;28;20920;-76
2024/03/21 04:00:45;;;;;;;29.10;20.07;;;;;;;;;;4997171;28;20903;-77
2024/03/21 04:03:11;;;;;;;30.70;19.87;;;;;;;;;;4997438;28;20402;-79
2024/03/21 04:05:38;;;;;;;28.03;20.03;;;;;;;;;;4997211;28;20233;-77
2024/03/21 04:08:04;;;;;;;27.17;18.37;;;;;;;;;;4997346;28;20496;-77
2024/03/21 04:10:30;;;;;;;28.67;18.80;;;;;;;;;;4997219;28;20430;-76
2024/03/21 04:12:56;;;;;;;26.17;17.30;;;;;;;;;;4997246;28;20411;-80
2024/03/21 04:15:22;;;;;;;25.00;16.63;;;;;;;;;;4996828;28;20211;-77
2024/03/21 04:17:50;;;;;;;23.63;15.67;;;;;;;;;;4997199;28;20410;-76
2024/03/21 04:20:16;;;;;;;24.63;16.60;;;;;;;;;;4997207;28;20440;-76
2024/03/21 04:22:42;;;;;;;22.23;15.00;;;;;;;;;;4997080;28;20923;-77
2024/03/21 04:25:08;;;;;;;22.33;13.97;;;;;;;;;;4997014;28;20430;-77
2024/03/21 04:27:34;;;;;;;18.10;14.27;;;;;;;;;;4996131;28;20427;-76
2024/03/21 04:30:00;;;;;;;17.03;12.50;;;;;;;;;;4996970;28;20437;-77
2024/03/21 04:32:25;;;;;;;16.20;12.43;;;;;;;;;;4996661;28;20183;-77
2024/03/21 04:34:51;;;;;;;15.63;11.60;;;;;;;;;;4996912;28;21000;-78
2024/03/21 04:37:18;;;;;;;14.77;11.70;;;;;;;;;;4996795;28;20412;-78
2024/03/21 04:39:45;;;;;;;14.40;11.07;;;;;;;;;;4996756;28;20546;-80
2024/03/21 04:42:12;;;;;;;12.33;9.63;;;;;;;;;;4996730;28;20411;-77
2024/03/21 04:44:38;;;;;;;14.17;10.03;;;;;;;;;;4996663;28;20427;-76
2024/03/21 04:47:04;;;;;;;13.57;9.93;;;;;;;;;;4996270;28;20417;-80
2024/03/21 04:49:30;;;;;;;13.47;8.20;;;;;;;;;;4996606;28;20419;-78
2024/03/21 04:51:56;;;;;;;11.60;7.80;;;;;;;;;;4996475;28;20417;-79
2024/03/21 04:54:22;;;;;;;9.30;7.27;;;;;;;;;;4996412;28;20462;-77
2024/03/21 04:56:47;;;;;;;10.27;6.90;;;;;;;;;;4996466;28;20902;-76
2024/03/21 04:59:13;;;;;;;9.47;6.20;;;;;;;;;;4996418;28;20410;-77
2024/03/21 05:01:39;;;;;;;11.07;7.97;;;;;;;;;;4996057;28;20504;-76
2024/03/21 05:04:05;;;;;;;8.00;6.20;;;;;;;;;;4996130;28;20462;-77
2024/03/21 05:06:31;;;;;;;10.43;6.37;;;;;;;;;;4996033;28;20422;-76
2024/03/21 05:08:58;;;;;;;9.97;6.43;;;;;;;;;;4996289;28;20414;-76
2024/03/21 05:11:23;;;;;;;9.97;7.13;;;;;;;;;;4996229;28;20509;-76
2024/03/21 05:13:50;;;;;;;9.33;6.50;;;;;;;;;;4996007;28;20441;-76
2024/03/21 05:16:16;;;;;;;10.63;6.10;;;;;;;;;;4995772;28;20419;-76
2024/03/21 05:18:42;;;;;;;10.77;6.50;;;;;;;;;;4995993;28;20440;-76
2024/03/21 05:21:09;;;;;;;13.20;7.23;;;;;;;;;;4994750;28;20426;-76
2024/03/21 05:23:35;;;;;;;11.30;7.70;;;;;;;;;;4995905;28;20437;-77
2024/03/21 05:26:00;;;;;;;11.30;7.17;;;;;;;;;;4995950;28;20421;-76
2024/03/21 05:28:27;;;;;;;11.63;7.50;;;;;;;;;;4995938;28;20469;-77
2024/03/21 05:30:53;;;;;;;11.37;7.73;;;;;;;;;;4995474;28;20707;-76
2024/03/21 05:33:19;;;;;;;13.13;7.33;;;;;;;;;;4995828;28;20421;-76
2024/03/21 05:35:44;;;;;;;12.33;7.77;;;;;;;;;;4995687;28;20532;-76
2024/03/21 05:38:11;;;;;;;11.10;7.20;;;;;;;;;;4995671;28;20410;-77
2024/03/21 05:40:39;;;;;;;13.20;7.80;;;;;;;;;;4995719;28;20422;-76
2024/03/21 05:43:07;;;;;;;12.97;7.80;;;;;;;;;;4995566;28;20407;-76
2024/03/21 05:45:33;;;;;;;11.13;7.93;;;;;;;;;;4995235;28;20426;-79
2024/03/21 05:47:59;;;;;;;14.33;8.13;;;;;;;;;;4995497;28;20415;-77
2024/03/21 05:50:25;;;;;;;13.73;8.30;;;;;;;;;;4995420;28;20428;-76
2024/03/21 05:52:51;;;;;;;12.30;8.00;;;;;;;;;;4995394;28;20640;-77
2024/03/21 05:55:16;;;;;;;12.40;7.80;;;;;;;;;;4995311;28;20473;-76
2024/03/21 05:57:42;;;;;;;11.40;7.90;;;;;;;;;;4995326;28;20175;-76
2024/03/21 06:00:16;;;;;;;11.17;8.10;;;;;;;;;;4993662;28;20505;-76
2024/03/21 06:02:42;;;;;;;11.13;7.80;;;;;;;;;;4995279;28;20398;-79
2024/03/21 06:05:08;;;;;;;13.97;8.30;;;;;;;;;;4995009;28;21003;-76
2024/03/21 06:07:34;;;;;;;12.13;7.70;;;;;;;;;;4993930;28;20833;-77
2024/03/21 06:10:00;;;;;;;8.93;7.20;;;;;;;;;;4995142;28;20421;-76
2024/03/21 06:12:26;;;;;;;10.40;7.10;;;;;;;;;;4995030;28;20181;-76
2024/03/21 06:14:52;;;;;;;9.90;7.43;;;;;;;;;;4994962;28;20472;-81
2024/03/21 06:17:18;;;;;;;12.10;7.43;;;;;;;;;;4994503;28;20418;-76
2024/03/21 06:19:44;;;;;;;9.97;7.50;;;;;;;;;;4993139;28;20405;-79
2024/03/21 06:22:10;;;;;;;14.73;8.20;;;;;;;;;;4994847;28;20640;-76
2024/03/21 06:24:36;;;;;;;11.70;8.73;;;;;;;;;;4994916;28;20206;-76
2024/03/21 06:27:01;;;;;;;10.57;6.80;;;;;;;;;;4994702;28;20421;-76
2024/03/21 06:29:28;;;;;;;12.00;8.43;;;;;;;;;;4994716;28;20425;-77
2024/03/21 06:31:54;;;;;;;11.67;8.20;;;;;;;;;;4992973;28;20193;-78
2024/03/21 06:34:20;;;;;;;11.03;8.83;;;;;;;;;;4994641;28;20471;-76
2024/03/21 06:36:46;;;;;;;11.63;8.27;;;;;;;;;;4994639;28;20415;-76
2024/03/21 06:39:13;;;;;;;24.63;16.97;;;;;;;;;;4994452;28;20476;-75
2024/03/21 06:41:39;;;;;;;32.03;21.20;;;;;;;;;;4994005;28;20418;-85
2024/03/21 06:44:05;;;;;;;24.70;19.67;;;;;;;;;;4993288;28;20500;-81
2024/03/21 06:46:31;;;;;;;28.20;21.40;;;;;;;;;;4983827;28;20882;-77
2024/03/21 06:48:57;;;;;;;28.63;19.10;;;;;;;;;;4983531;28;20420;-78
2024/03/21 06:51:23;;;;;;;23.87;17.13;;;;;;;;;;4984408;28;20929;-76
2024/03/21 06:53:49;;;;;;;21.90;15.40;;;;;;;;;;4974665;28;20834;-76
2024/03/21 06:56:15;;;;;;;22.80;16.07;;;;;;;;;;4974931;28;20505;-76
2024/03/21 06:58:41;;;;;;;21.10;14.93;;;;;;;;;;4974661;28;20437;-76
2024/03/21 07:01:07;;;;;;;23.40;16.40;;;;;;;;;;4974455;28;20417;-77
2024/03/21 07:03:33;;;;;;;19.40;13.57;;;;;;;;;;4974503;28;20901;-77
2024/03/21 07:05:58;;;;;;;16.20;11.80;;;;;;;;;;4974694;28;20440;-76
2024/03/21 07:08:24;;;;;;;17.53;11.60;;;;;;;;;;4974632;28;20412;-76
2024/03/21 07:10:50;;;;;;;13.20;8.90;;;;;;;;;;4974521;28;20177;-77
2024/03/21 07:13:16;;;;;;;13.07;10.43;;;;;;;;;;4974722;28;20421;-77
2024/03/21 07:15:43;;;;;;;11.13;9.77;;;;;;;;;;4974080;28;20479;-76
2024/03/21 07:18:09;;;;;;;13.73;7.90;;;;;;;;;;4974496;28;20780;-76
2024/03/21 07:20:35;;;;;;;12.10;8.43;;;;;;;;;;4974503;28;20913;-77
2024/03/21 07:23:01;;;;;;;10.80;7.80;;;;;;;;;;4974403;28;20414;-76
2024/03/21 07:25:27;;;;;;;12.43;9.00;;;;;;;;;;4973215;28;20427;-76
2024/03/21 07:27:53;;;;;;;12.67;8.57;;;;;;;;;;4974254;28;20472;-80
2024/03/21 07:30:19;;;;;;;12.87;8.63;;;;;;;;;;4973929;28;20418;-79
2024/03/21 07:32:45;;;;;;;10.60;7.83;;;;;;;;;;4974305;28;20812;-78
2024/03/21 07:35:11;;;;;;;13.17;8.97;;;;;;;;;;4974218;28;20521;-76
2024/03/21 07:37:37;;;;;;;12.97;7.50;;;;;;;;;;4974257;28;20413;-76
2024/03/21 07:40:05;;;;;;;9.67;7.37;;;;;;;;;;4974378;28;20432;-76
2024/03/21 07:42:31;;;;;;;8.37;7.10;;;;;;;;;;4974263;28;20412;-76
2024/03/21 07:44:57;;;;;;;10.53;6.60;;;;;;;;;;4973873;28;20496;-77
2024/03/21 07:47:23;;;;;;;13.10;7.70;;;;;;;;;;4979138;28;20995;-78
2024/03/21 07:49:49;;;;;;;9.50;8.23;;;;;;;;;;4982635;28;20459;-76
2024/03/21 07:52:15;;;;;;;10.17;7.63;;;;;;;;;;4993540;28;21040;-77
2024/03/21 07:54:41;;;;;;;9.30;6.90;;;;;;;;;;4993460;28;20471;-76
2024/03/21 07:57:07;;;;;;;12.53;7.17;;;;;;;;;;4993422;28;20773;-77
2024/03/21 07:59:33;;;;;;;10.00;7.23;;;;;;;;;;4991828;28;20928;-76
2024/03/21 08:01:59;;;;;;;8.27;5.33;;;;;;;;;;4992663;28;20416;-76
2024/03/21 08:04:25;;;;;;;13.63;6.93;;;;;;;;;;4993237;28;21030;-76
2024/03/21 08:06:51;;;;;;;9.90;6.60;;;;;;;;;;4993487;28;20176;-76
2024/03/21 08:09:16;;;;;;;9.23;5.87;;;;;;;;;;4993455;28;20636;-76
2024/03/21 08:11:43;;;;;;;8.40;5.70;;;;;;;;;;4993386;28;20915;-75
2024/03/21 08:14:09;;;;;;;11.00;5.53;;;;;;;;;;4993301;28;20456;-75
2024/03/21 08:16:35;;;;;;;13.20;4.37;;;;;;;;;;4993004;28;20425;-77
2024/03/21 08:19:00;;;;;;;10.93;5.00;;;;;;;;;;4993401;28;20558;-75
2024/03/21 08:21:26;;;;;;;9.30;5.80;;;;;;;;;;4993360;28;20873;-76
2024/03/21 08:23:52;;;;;;;9.63;5.30;;;;;;;;;;4993256;28;20415;-76
2024/03/21 08:26:19;;;;;;;9.30;4.80;;;;;;;;;;4993314;28;20419;-76
2024/03/21 08:28:45;;;;;;;11.30;5.20;;;;;;;;;;4993275;28;20178;-77
2024/03/21 08:31:11;;;;;;;9.27;4.33;;;;;;;;;;4992860;28;20420;-79
2024/03/21 08:33:37;;;;;;;10.10;3.90;;;;;;;;;;4993262;28;20437;-76
2024/03/21 08:36:03;;;;;;;9.87;4.20;;;;;;;;;;4993101;28;20481;-76
2024/03/21 08:38:30;;;;;;;7.87;3.40;;;;;;;;;;4993147;28;20503;-76
2024/03/21 08:40:56;;;;;;;8.80;4.40;;;;;;;;;;4992142;28;20437;-76
2024/03/21 08:43:22;;;;;;;6.77;3.70;;;;;;;;;;4996721;28;20420;-76
2024/03/21 08:45:49;;;;;;;9.23;4.50;;;;;;;;;;4996329;28;20443;-76
2024/03/21 08:48:15;;;;;;;6.63;2.90;;;;;;;;;;4995413;28;20808;-76
2024/03/21 08:50:44;;;;;;;6.50;3.30;;;;;;;;;;4996524;28;20975;-76
2024/03/21 08:53:10;;;;;;;7.70;3.67;;;;;;;;;;4996500;28;20454;-77
2024/03/21 08:55:36;;;;;;;8.63;4.20;;;;;;;;;;4996381;28;20541;-76
2024/03/21 08:58:03;;;;;;;8.60;3.57;;;;;;;;;;4996467;28;20178;-76
2024/03/21 09:00:32;;;;;;;7.13;4.10;;;;;;;;;;4996101;28;20421;-76
2024/03/21 09:02:58;;;;;;;10.33;5.80;;;;;;;;;;4996239;28;20420;-76
2024/03/21 09:05:24;;;;;;;7.00;4.00;;;;;;;;;;4996083;28;20523;-76
2024/03/21 09:07:50;;;;;;;13.83;7.87;;;;;;;;;;4996339;28;20409;-76
2024/03/21 09:10:16;;;;;;;10.37;6.20;;;;;;;;;;4996227;28;20427;-76
2024/03/21 09:12:42;;;;;;;9.63;6.23;;;;;;;;;;4996102;28;20413;-76
2024/03/21 09:15:09;;;;;;;12.80;6.87;;;;;;;;;;4995755;28;20488;-77
2024/03/21 09:17:35;;;;;;;10.60;6.60;;;;;;;;;;4996057;28;20501;-76
2024/03/21 09:20:01;;;;;;;10.30;6.43;;;;;;;;;;4994756;28;20450;-76
2024/03/21 09:22:27;;;;;;;11.43;6.60;;;;;;;;;;4996065;28;20914;-76
2024/03/21 09:24:53;;;;;;;11.60;7.50;;;;;;;;;;4996005;28;20490;-76
2024/03/21 09:27:19;;;;;;;14.93;9.13;;;;;;;;;;4995967;28;20514;-76
2024/03/21 09:29:46;;;;;;;15.00;9.77;;;;;;;;;;4995527;28;20724;-76
2024/03/21 09:32:12;;;;;;;15.00;10.07;;;;;;;;;;4995769;28;20460;-76
2024/03/21 09:34:38;;;;;;;16.50;10.20;;;;;;;;;;4995693;28;20507;-76
2024/03/21 09:37:04;;;;;;;11.17;9.30;;;;;;;;;;4994457;28;20416;-75
2024/03/21 09:39:30;;;;;;;10.60;8.50;;;;;;;;;;4995513;28;20420;-76
2024/03/21 09:41:56;;;;;;;11.97;8.80;;;;;;;;;;4995636;28;20423;-76
2024/03/21 09:44:22;;;;;;;12.73;8.23;;;;;;;;;;4995486;28;20444;-76
2024/03/21 09:46:48;;;;;;;14.27;9.57;;;;;;;;;;4995422;28;20424;-77
2024/03/21 09:49:14;;;;;;;12.20;11.00;;;;;;;;;;4994252;28;20907;-77
2024/03/21 09:51:42;;;;;;;11.97;9.57;;;;;;;;;;4995492;28;20425;-77
2024/03/21 09:54:12;;;;;;;10.10;8.20;;;;;;;;;;4994187;28;20477;-76
2024/03/21 09:56:38;;;;;;;11.73;9.43;;;;;;;;;;4995362;28;20425;-76
2024/03/21 09:59:10;;;;;;;14.70;8.43;;;;;;;;;;4995423;28;20436;-76
2024/03/21 10:01:36;;;;;;;11.73;8.33;;;;;;;;;;4994903;28;20423;-76
2024/03/21 10:04:02;;;;;;;9.70;7.00;;;;;;;;;;4995133;28;20468;-75
2024/03/21 10:06:28;;;;;;;9.13;7.53;;;;;;;;;;4995107;28;20433;-77
2024/03/21 10:08:56;;;;;;;7.80;6.77;;;;;;;;;;4995116;28;20494;-78
2024/03/21 10:11:23;;;;;;;10.30;7.27;;;;;;;;;;4995105;28;20422;-77
2024/03/21 10:13:49;;;;;;;11.20;7.80;;;;;;;;;;4994698;28;20501;-76
2024/03/21 10:16:15;;;;;;;8.57;6.47;;;;;;;;;;4986078;28;20446;-77
2024/03/21 10:18:42;;;;;;;12.53;8.63;;;;;;;;;;4983828;28;20439;-77
2024/03/21 10:21:15;;;;;;;12.20;7.13;;;;;;;;;;4985553;28;20414;-76
2024/03/21 10:23:41;;;;;;;11.90;7.37;;;;;;;;;;4985616;28;20978;-77
2024/03/21 10:26:13;;;;;;;10.47;8.67;;;;;;;;;;4983798;28;20847;-76
2024/03/21 10:29:03;;;;;;;12.20;9.70;;;;;;;;;;4982959;28;20516;-78
2024/03/21 10:31:35;;;;;;;16.30;8.80;;;;;;;;;;4984963;28;20396;-80
2024/03/21 10:34:01;;;;;;;13.47;8.70;;;;;;;;;;4990070;28;20419;-77
2024/03/21 10:36:30;;;;;;;13.37;9.30;;;;;;;;;;4994781;28;20928;-77
2024/03/21 10:39:00;;;;;;;13.77;9.40;;;;;;;;;;4994580;28;20418;-79
2024/03/21 10:41:29;;;;;;;12.53;8.77;;;;;;;;;;4983613;28;20428;-81
2024/03/21 10:43:57;;;;;;;12.83;8.17;;;;;;;;;;4974721;28;20447;-80
2024/03/21 10:46:23;;;;;;;11.97;9.90;;;;;;;;;;4973376;28;20819;-83
2024/03/21 10:48:50;;;;;;;11.57;8.40;;;;;;;;;;4990687;28;20423;-81
2024/03/21 10:51:18;;;;;;;11.17;8.07;;;;;;;;;;4994374;28;20410;-81
2024/03/21 10:54:04;;;;;;;11.40;7.20;;;;;;;;;;4992948;28;20423;-81
2024/03/21 10:56:33;;;;;;;8.60;7.63;;;;;;;;;;4994280;28;20517;-81
2024/03/21 10:58:59;;;;;;;7.07;4.87;;;;;;;;;;4993865;28;20501;-83
2024/03/21 11:01:37;;;;;;;4.53;2.80;;;;;;;;;;4993349;28;20418;-83
2024/03/21 11:04:10;;;;;;;4.00;2.30;;;;;;;;;;4993700;28;20462;-78
2024/03/21 11:06:45;;;;;;;3.53;2.00;;;;;;;;;;4993895;28;20414;-82
2024/03/21 11:09:13;;;;;;;3.53;1.70;;;;;;;;;;4994092;28;20402;-78
2024/03/21 11:11:39;;;;;;;3.03;1.67;;;;;;;;;;4993600;28;20848;-79
2024/03/21 11:14:09;;;;;;;2.63;1.90;;;;;;;;;;4973151;28;20521;-81
2024/03/21 11:16:36;;;;;;;1.83;0.97;;;;;;;;;;4974604;28;20430;-82
2024/03/21 11:19:03;;;;;;;2.87;1.37;;;;;;;;;;4973203;28;20458;-83
2024/03/21 11:21:29;;;;;;;3.30;2.00;;;;;;;;;;4974462;28;20454;-84
2024/03/21 11:23:54;;;;;;;4.23;1.93;;;;;;;;;;4980018;28;20456;-82
2024/03/21 11:26:21;;;;;;;3.90;2.00;;;;;;;;;;4983403;28;20773;-83
2024/03/21 11:28:51;;;;;;;5.80;3.20;;;;;;;;;;4983880;28;20187;-80
2024/03/21 11:31:19;;;;;;;5.37;3.53;;;;;;;;;;4984990;28;20469;-84
2024/03/21 11:33:46;;;;;;;4.90;3.60;;;;;;;;;;4993634;28;20412;-83
2024/03/21 11:36:12;;;;;;;5.07;4.03;;;;;;;;;;4993542;28;20480;-79
2024/03/21 11:38:38;;;;;;;7.80;4.90;;;;;;;;;;4993699;28;20410;-82
2024/03/21 11:41:04;;;;;;;9.90;4.73;;;;;;;;;;4993642;28;20520;-80
2024/03/21 11:43:30;;;;;;;8.10;5.23;;;;;;;;;;4993583;28;20417;-81
2024/03/21 11:45:59;;;;;;;8.40;4.97;;;;;;;;;;5001245;28;20978;-81
2024/03/21 11:48:26;;;;;;;6.40;5.23;;;;;;;;;;4993848;28;20186;-83
2024/03/21 11:50:52;;;;;;;9.40;5.27;;;;;;;;;;4993827;28;20429;-82
2024/03/21 11:53:19;;;;;;;8.40;5.83;;;;;;;;;;4993929;28;20444;-80
2024/03/21 11:55:45;;;;;;;10.00;6.27;;;;;;;;;;4993945;28;20483;-83
2024/03/21 11:58:12;;;;;;;10.97;6.00;;;;;;;;;;4993441;28;20413;-82
2024/03/21 12:00:38;;;;;;;9.47;6.97;;;;;;;;;;4993252;28;20418;-82
2024/03/21 12:03:04;;;;;;;8.80;6.17;;;;;;;;;;4993478;28;20808;-80
2024/03/21 12:05:30;;;;;;;7.17;5.47;;;;;;;;;;4993555;28;20475;-80
2024/03/21 12:07:56;;;;;;;8.83;5.63;;;;;;;;;;4993382;28;20493;-84
2024/03/21 12:10:22;;;;;;;7.90;5.67;;;;;;;;;;4985809;28;20518;-77
2024/03/21 12:12:48;;;;;;;10.73;8.10;;;;;;;;;;4981867;28;20998;-77
2024/03/21 12:15:14;;;;;;;6.60;4.70;;;;;;;;;;4983574;28;20216;-82
2024/03/21 12:17:40;;;;;;;6.73;5.13;;;;;;;;;;4979391;28;20510;-78
2024/03/21 12:20:07;;;;;;;7.97;5.53;;;;;;;;;;4977740;28;20876;-83
2024/03/21 12:22:32;;;;;;;6.60;4.50;;;;;;;;;;4977825;28;20893;-76
2024/03/21 12:25:00;;;;;;;8.17;5.70;;;;;;;;;;4983555;28;20433;-77
2024/03/21 12:27:26;;;;;;;8.70;5.70;;;;;;;;;;4985997;28;20554;-78
2024/03/21 12:29:51;;;;;;;5.77;4.37;;;;;;;;;;4987276;28;20420;-77
2024/03/21 12:32:17;;;;;;;8.60;6.30;;;;;;;;;;4985633;28;20421;-77
2024/03/21 12:34:44;;;;;;;8.73;6.67;;;;;;;;;;4986611;28;20463;-78
2024/03/21 12:37:13;;;;;;;7.70;5.90;;;;;;;;;;4983612;28;20418;-79
2024/03/21 12:39:39;;;;;;;7.13;4.80;;;;;;;;;;4976087;28;20419;-76
2024/03/21 12:42:05;;;;;;;9.10;5.93;;;;;;;;;;4982118;28;20423;-85
2024/03/21 12:44:31;;;;;;;7.10;5.60;;;;;;;;;;4992712;28;20414;-83
2024/03/21 12:46:57;;;;;;;7.87;6.40;;;;;;;;;;4996538;28;20417;-83
2024/03/21 12:49:23;;;;;;;10.00;5.60;;;;;;;;;;4996275;28;20430;-83
2024/03/21 12:51:49;;;;;;;8.20;6.57;;;;;;;;;;4995809;28;20452;-84
2024/03/21 12:54:15;;;;;;;8.03;5.33;;;;;;;;;;4995171;28;20511;-83
2024/03/21 12:56:41;;;;;;;7.97;6.50;;;;;;;;;;4995761;28;20458;-82
2024/03/21 12:59:07;;;;;;;9.70;6.50;;;;;;;;;;4995576;28;20930;-84
2024/03/21 13:01:33;;;;;;;6.80;6.10;;;;;;;;;;4996409;28;20512;-83
2024/03/21 13:03:59;;;;;;;9.80;5.57;;;;;;;;;;4995693;28;20227;-83
2024/03/21 13:06:24;;;;;;;7.63;4.97;;;;;;;;;;4995887;28;20889;-82
2024/03/21 13:08:51;;;;;;;6.60;4.37;;;;;;;;;;4996124;28;20491;-82
2024/03/21 13:11:17;;;;;;;7.30;4.97;;;;;;;;;;4996187;28;20456;-83
2024/03/21 13:13:43;;;;;;;9.37;6.30;;;;;;;;;;4995904;28;20447;-82
2024/03/21 13:16:10;;;;;;;7.70;5.17;;;;;;;;;;4995532;28;20564;-83
2024/03/21 13:18:36;;;;;;;9.20;5.67;;;;;;;;;;4996029;28;20445;-82
2024/03/21 13:21:02;;;;;;;5.40;4.03;;;;;;;;;;4995281;28;20796;-78
2024/03/21 13:23:28;;;;;;;6.47;5.10;;;;;;;;;;4985399;28;20433;-77
2024/03/21 13:25:54;;;;;;;7.03;4.97;;;;;;;;;;4985987;28;20820;-76
2024/03/21 13:28:20;;;;;;;7.50;4.50;;;;;;;;;;4984457;28;20921;-76
2024/03/21 13:30:46;;;;;;;6.90;5.23;;;;;;;;;;4984463;28;20415;-75
2024/03/21 13:33:12;;;;;;;6.13;5.07;;;;;;;;;;4986295;28;20920;-76
2024/03/21 13:35:39;;;;;;;7.67;4.60;;;;;;;;;;4983515;28;20483;-76
2024/03/21 13:38:04;;;;;;;7.90;4.43;;;;;;;;;;4985210;28;20407;-75
2024/03/21 13:40:31;;;;;;;6.70;5.00;;;;;;;;;;4978761;28;20518;-76
2024/03/21 13:42:57;;;;;;;7.17;5.37;;;;;;;;;;4976298;28;20420;-77
2024/03/21 13:45:23;;;;;;;6.30;4.50;;;;;;;;;;4980859;28;20903;-76
2024/03/21 13:47:49;;;;;;;6.97;5.27;;;;;;;;;;4986293;28;20438;-75
2024/03/21 13:50:15;;;;;;;7.07;4.50;;;;;;;;;;4984522;28;20418;-77
2024/03/21 13:52:42;;;;;;;5.93;5.30;;;;;;;;;;4985170;28;20407;-75
2024/03/21 13:55:09;;;;;;;10.00;4.80;;;;;;;;;;4986142;28;20474;-75
2024/03/21 13:57:35;;;;;;;7.43;5.20;;;;;;;;;;4984335;28;20468;-75
2024/03/21 14:00:10;;;;;;;5.20;3.43;;;;;;;;;;4983587;28;20484;-75
2024/03/21 14:02:37;;;;;;;6.80;5.50;;;;;;;;;;4984387;28;20766;-75
2024/03/21 14:05:03;;;;;;;6.40;4.70;;;;;;;;;;4984545;28;20470;-77
2024/03/21 14:07:29;;;;;;;6.00;5.07;;;;;;;;;;4986004;28;20758;-75
2024/03/21 14:09:57;;;;;;;6.47;4.97;;;;;;;;;;4984337;28;20431;-75
2024/03/21 14:12:23;;;;;;;6.00;4.97;;;;;;;;;;4984641;28;20431;-75
2024/03/21 14:14:49;;;;;;;8.63;5.87;;;;;;;;;;4985325;28;20830;-75
2024/03/21 14:17:15;;;;;;;7.47;5.37;;;;;;;;;;4982040;28;20172;-76
2024/03/21 14:19:41;;;;;;;7.53;5.23;;;;;;;;;;4984548;28;20243;-76
2024/03/21 14:22:07;;;;;;;8.20;4.93;;;;;;;;;;4983914;28;20782;-75
2024/03/21 14:24:33;;;;;;;7.70;5.03;;;;;;;;;;4980631;28;20420;-75
2024/03/21 14:26:59;;;;;;;7.40;5.87;;;;;;;;;;4975493;28;20187;-76